sensor_id;sensor_type;location;lat;lon;timestamp;P1;durP1;ratioP1;P2;durP2;ratioP2
53903;SDS011;39812;52.430;16.936;2023-02-02T00:01:54;6.85;;;1.92;;
53903;SDS011;39812;52.430;16.936;2023-02-02T00:04:31;14.85;;;4.15;;
53903;SDS011;39812;52.430;16.936;2023-02-02T00:06:59;18.90;;;2.25;;
53903;SDS011;39812;52.430;16.936;2023-02-02T00:09:26;17.67;;;2.72;;
53903;SDS011;39812;52.430;16.936;2023-02-02T00:11:53;13.10;;;2.17;;
53903;SDS011;39812;52.430;16.936;2023-02-02T00:14:19;9.80;;;1.98;;
53903;SDS011;39812;52.430;16.936;2023-02-02T00:19:18;8.20;;;2.05;;
53903;SDS011;39812;52.430;16.936;2023-02-02T00:21:45;14.05;;;2.70;;
53903;SDS011;39812;52.430;16.936;2023-02-02T00:24:12;7.63;;;2.00;;
53903;SDS011;39812;52.430;16.936;2023-02-02T00:26:39;15.38;;;3.83;;
53903;SDS011;39812;52.430;16.936;2023-02-02T00:29:06;13.70;;;2.35;;
53903;SDS011;39812;52.430;16.936;2023-02-02T00:31:36;7.90;;;2.78;;
53903;SDS011;39812;52.430;16.936;2023-02-02T00:34:02;10.57;;;2.92;;
53903;SDS011;39812;52.430;16.936;2023-02-02T00:36:27;8.85;;;2.10;;
53903;SDS011;39812;52.430;16.936;2023-02-02T00:38:53;9.40;;;1.98;;
53903;SDS011;39812;52.430;16.936;2023-02-02T00:41:19;7.32;;;2.50;;
53903;SDS011;39812;52.430;16.936;2023-02-02T00:43:44;8.32;;;2.67;;
53903;SDS011;39812;52.430;16.936;2023-02-02T00:46:30;8.88;;;2.13;;
53903;SDS011;39812;52.430;16.936;2023-02-02T00:48:56;9.95;;;1.90;;
53903;SDS011;39812;52.430;16.936;2023-02-02T00:51:21;5.00;;;1.80;;
53903;SDS011;39812;52.430;16.936;2023-02-02T00:53:47;15.35;;;1.95;;
53903;SDS011;39812;52.430;16.936;2023-02-02T00:56:13;9.02;;;3.13;;
53903;SDS011;39812;52.430;16.936;2023-02-02T00:58:38;11.13;;;2.60;;
53903;SDS011;39812;52.430;16.936;2023-02-02T01:01:04;9.25;;;2.00;;
53903;SDS011;39812;52.430;16.936;2023-02-02T01:03:30;12.73;;;2.03;;
53903;SDS011;39812;52.430;16.936;2023-02-02T01:05:55;9.75;;;2.53;;
53903;SDS011;39812;52.430;16.936;2023-02-02T01:08:21;7.85;;;1.98;;
53903;SDS011;39812;52.430;16.936;2023-02-02T01:10:47;6.88;;;1.65;;
53903;SDS011;39812;52.430;16.936;2023-02-02T01:13:12;11.65;;;3.20;;
53903;SDS011;39812;52.430;16.936;2023-02-02T01:15:38;10.68;;;4.03;;
53903;SDS011;39812;52.430;16.936;2023-02-02T01:18:04;17.27;;;4.20;;
53903;SDS011;39812;52.430;16.936;2023-02-02T01:20:29;11.05;;;2.35;;
53903;SDS011;39812;52.430;16.936;2023-02-02T01:22:56;6.45;;;2.03;;
53903;SDS011;39812;52.430;16.936;2023-02-02T01:25:21;12.07;;;2.30;;
53903;SDS011;39812;52.430;16.936;2023-02-02T01:27:47;7.90;;;1.90;;
53903;SDS011;39812;52.430;16.936;2023-02-02T01:30:13;8.32;;;2.25;;
53903;SDS011;39812;52.430;16.936;2023-02-02T01:32:39;15.45;;;3.13;;
53903;SDS011;39812;52.430;16.936;2023-02-02T01:35:04;9.00;;;1.98;;
53903;SDS011;39812;52.430;16.936;2023-02-02T01:37:30;12.02;;;2.20;;
53903;SDS011;39812;52.430;16.936;2023-02-02T01:39:56;7.65;;;2.40;;
53903;SDS011;39812;52.430;16.936;2023-02-02T01:42:22;7.25;;;2.10;;
53903;SDS011;39812;52.430;16.936;2023-02-02T01:45:12;6.97;;;1.67;;
53903;SDS011;39812;52.430;16.936;2023-02-02T01:47:43;5.63;;;1.42;;
53903;SDS011;39812;52.430;16.936;2023-02-02T01:50:14;8.55;;;1.70;;
53903;SDS011;39812;52.430;16.936;2023-02-02T01:52:42;8.93;;;1.38;;
53903;SDS011;39812;52.430;16.936;2023-02-02T01:55:13;9.18;;;1.60;;
53903;SDS011;39812;52.430;16.936;2023-02-02T01:57:52;7.90;;;1.73;;
53903;SDS011;39812;52.430;16.936;2023-02-02T02:00:22;12.65;;;1.52;;
53903;SDS011;39812;52.430;16.936;2023-02-02T02:02:51;12.25;;;1.55;;
53903;SDS011;39812;52.430;16.936;2023-02-02T02:05:25;6.30;;;1.70;;
53903;SDS011;39812;52.430;16.936;2023-02-02T02:08:02;8.32;;;2.20;;
53903;SDS011;39812;52.430;16.936;2023-02-02T02:10:48;7.47;;;1.30;;
53903;SDS011;39812;52.430;16.936;2023-02-02T02:13:14;9.10;;;1.70;;
53903;SDS011;39812;52.430;16.936;2023-02-02T02:21:26;7.93;;;2.25;;
53903;SDS011;39812;52.430;16.936;2023-02-02T02:33:50;6.95;;;1.65;;
53903;SDS011;39812;52.430;16.936;2023-02-02T02:36:18;7.38;;;1.60;;
53903;SDS011;39812;52.430;16.936;2023-02-02T02:39:14;5.03;;;2.20;;
53903;SDS011;39812;52.430;16.936;2023-02-02T02:41:51;7.63;;;1.67;;
53903;SDS011;39812;52.430;16.936;2023-02-02T02:44:19;13.75;;;2.00;;
53903;SDS011;39812;52.430;16.936;2023-02-02T02:46:47;7.57;;;1.20;;
53903;SDS011;39812;52.430;16.936;2023-02-02T02:49:13;8.88;;;2.15;;
53903;SDS011;39812;52.430;16.936;2023-02-02T02:54:23;8.82;;;2.20;;
53903;SDS011;39812;52.430;16.936;2023-02-02T03:00:06;5.15;;;1.30;;
53903;SDS011;39812;52.430;16.936;2023-02-02T03:10:41;17.23;;;3.08;;
53903;SDS011;39812;52.430;16.936;2023-02-02T03:13:10;6.28;;;1.63;;
53903;SDS011;39812;52.430;16.936;2023-02-02T03:15:40;10.93;;;2.35;;
53903;SDS011;39812;52.430;16.936;2023-02-02T03:18:13;11.30;;;2.33;;
53903;SDS011;39812;52.430;16.936;2023-02-02T03:20:41;8.25;;;1.85;;
53903;SDS011;39812;52.430;16.936;2023-02-02T03:23:08;12.10;;;2.60;;
53903;SDS011;39812;52.430;16.936;2023-02-02T03:25:34;16.77;;;2.85;;
53903;SDS011;39812;52.430;16.936;2023-02-02T03:28:00;15.02;;;2.72;;
53903;SDS011;39812;52.430;16.936;2023-02-02T03:30:26;5.88;;;1.88;;
53903;SDS011;39812;52.430;16.936;2023-02-02T03:32:52;24.52;;;3.45;;
53903;SDS011;39812;52.430;16.936;2023-02-02T03:35:18;13.43;;;2.30;;
53903;SDS011;39812;52.430;16.936;2023-02-02T03:37:46;10.52;;;2.38;;
53903;SDS011;39812;52.430;16.936;2023-02-02T03:40:12;14.07;;;1.70;;
53903;SDS011;39812;52.430;16.936;2023-02-02T03:42:38;9.52;;;2.60;;
53903;SDS011;39812;52.430;16.936;2023-02-02T03:45:04;11.98;;;2.47;;
53903;SDS011;39812;52.430;16.936;2023-02-02T03:47:30;8.93;;;3.85;;
53903;SDS011;39812;52.430;16.936;2023-02-02T03:49:56;14.43;;;3.63;;
53903;SDS011;39812;52.430;16.936;2023-02-02T03:52:23;5.68;;;2.10;;
53903;SDS011;39812;52.430;16.936;2023-02-02T03:54:49;11.77;;;2.58;;
53903;SDS011;39812;52.430;16.936;2023-02-02T03:57:16;12.10;;;2.30;;
53903;SDS011;39812;52.430;16.936;2023-02-02T03:59:41;14.23;;;2.20;;
53903;SDS011;39812;52.430;16.936;2023-02-02T04:02:07;6.05;;;1.88;;
53903;SDS011;39812;52.430;16.936;2023-02-02T04:04:33;7.60;;;1.95;;
53903;SDS011;39812;52.430;16.936;2023-02-02T04:06:59;10.50;;;2.28;;
53903;SDS011;39812;52.430;16.936;2023-02-02T04:09:25;11.93;;;3.00;;
53903;SDS011;39812;52.430;16.936;2023-02-02T04:11:51;7.90;;;1.73;;
53903;SDS011;39812;52.430;16.936;2023-02-02T04:14:17;14.10;;;2.40;;
53903;SDS011;39812;52.430;16.936;2023-02-02T04:16:43;10.00;;;2.70;;
53903;SDS011;39812;52.430;16.936;2023-02-02T04:19:08;6.00;;;1.38;;
53903;SDS011;39812;52.430;16.936;2023-02-02T04:21:36;4.68;;;2.08;;
53903;SDS011;39812;52.430;16.936;2023-02-02T04:24:03;2.70;;;1.25;;
53903;SDS011;39812;52.430;16.936;2023-02-02T04:26:30;15.07;;;2.63;;
53903;SDS011;39812;52.430;16.936;2023-02-02T04:28:55;6.40;;;1.33;;
53903;SDS011;39812;52.430;16.936;2023-02-02T04:31:21;5.30;;;1.40;;
53903;SDS011;39812;52.430;16.936;2023-02-02T04:33:47;8.73;;;1.40;;
53903;SDS011;39812;52.430;16.936;2023-02-02T04:36:12;6.60;;;1.92;;
53903;SDS011;39812;52.430;16.936;2023-02-02T04:38:38;6.63;;;1.58;;
53903;SDS011;39812;52.430;16.936;2023-02-02T04:41:05;7.90;;;1.40;;
53903;SDS011;39812;52.430;16.936;2023-02-02T04:43:35;3.45;;;1.10;;
53903;SDS011;39812;52.430;16.936;2023-02-02T04:46:02;2.90;;;0.98;;
53903;SDS011;39812;52.430;16.936;2023-02-02T04:48:27;4.93;;;1.83;;
53903;SDS011;39812;52.430;16.936;2023-02-02T04:50:57;6.60;;;1.13;;
53903;SDS011;39812;52.430;16.936;2023-02-02T04:53:23;3.30;;;1.40;;
53903;SDS011;39812;52.430;16.936;2023-02-02T04:55:49;4.00;;;1.30;;
53903;SDS011;39812;52.430;16.936;2023-02-02T04:58:15;3.75;;;1.52;;
53903;SDS011;39812;52.430;16.936;2023-02-02T05:00:40;4.13;;;1.00;;
53903;SDS011;39812;52.430;16.936;2023-02-02T05:03:06;3.97;;;1.30;;
53903;SDS011;39812;52.430;16.936;2023-02-02T05:05:31;2.25;;;1.25;;
53903;SDS011;39812;52.430;16.936;2023-02-02T05:07:57;3.10;;;1.15;;
53903;SDS011;39812;52.430;16.936;2023-02-02T05:10:24;3.55;;;1.55;;
53903;SDS011;39812;52.430;16.936;2023-02-02T05:12:53;1.67;;;1.02;;
53903;SDS011;39812;52.430;16.936;2023-02-02T05:15:19;5.05;;;1.35;;
53903;SDS011;39812;52.430;16.936;2023-02-02T05:17:46;3.00;;;1.20;;
53903;SDS011;39812;52.430;16.936;2023-02-02T05:20:12;5.43;;;1.20;;
53903;SDS011;39812;52.430;16.936;2023-02-02T05:22:38;1.77;;;1.10;;
53903;SDS011;39812;52.430;16.936;2023-02-02T05:25:04;1.40;;;0.90;;
53903;SDS011;39812;52.430;16.936;2023-02-02T05:27:31;2.10;;;1.17;;
53903;SDS011;39812;52.430;16.936;2023-02-02T05:29:56;2.13;;;1.85;;
53903;SDS011;39812;52.430;16.936;2023-02-02T05:32:23;1.50;;;0.90;;
53903;SDS011;39812;52.430;16.936;2023-02-02T05:34:49;2.22;;;1.02;;
53903;SDS011;39812;52.430;16.936;2023-02-02T05:37:14;2.95;;;1.33;;
53903;SDS011;39812;52.430;16.936;2023-02-02T05:39:40;1.10;;;0.80;;
53903;SDS011;39812;52.430;16.936;2023-02-02T05:42:07;3.17;;;1.50;;
53903;SDS011;39812;52.430;16.936;2023-02-02T05:44:32;4.00;;;1.20;;
53903;SDS011;39812;52.430;16.936;2023-02-02T05:46:58;1.98;;;1.10;;
53903;SDS011;39812;52.430;16.936;2023-02-02T05:49:24;2.05;;;1.20;;
53903;SDS011;39812;52.430;16.936;2023-02-02T05:51:53;2.42;;;1.27;;
53903;SDS011;39812;52.430;16.936;2023-02-02T05:54:21;1.90;;;1.30;;
53903;SDS011;39812;52.430;16.936;2023-02-02T05:56:47;1.95;;;1.13;;
53903;SDS011;39812;52.430;16.936;2023-02-02T05:59:14;2.58;;;1.35;;
53903;SDS011;39812;52.430;16.936;2023-02-02T06:01:41;1.95;;;1.50;;
53903;SDS011;39812;52.430;16.936;2023-02-02T06:04:08;1.67;;;1.13;;
53903;SDS011;39812;52.430;16.936;2023-02-02T06:06:34;0.75;;;0.75;;
53903;SDS011;39812;52.430;16.936;2023-02-02T06:09:02;2.13;;;1.10;;
53903;SDS011;39812;52.430;16.936;2023-02-02T06:11:28;1.88;;;1.00;;
53903;SDS011;39812;52.430;16.936;2023-02-02T06:13:53;1.75;;;1.30;;
53903;SDS011;39812;52.430;16.936;2023-02-02T06:16:19;3.45;;;1.38;;
53903;SDS011;39812;52.430;16.936;2023-02-02T06:18:46;1.33;;;0.88;;
53903;SDS011;39812;52.430;16.936;2023-02-02T06:21:12;1.15;;;0.82;;
53903;SDS011;39812;52.430;16.936;2023-02-02T06:23:38;1.27;;;0.93;;
53903;SDS011;39812;52.430;16.936;2023-02-02T06:26:10;1.33;;;1.20;;
53903;SDS011;39812;52.430;16.936;2023-02-02T06:28:36;2.00;;;1.25;;
53903;SDS011;39812;52.430;16.936;2023-02-02T06:31:03;2.80;;;1.55;;
53903;SDS011;39812;52.430;16.936;2023-02-02T06:33:30;1.42;;;1.33;;
53903;SDS011;39812;52.430;16.936;2023-02-02T06:35:59;2.97;;;1.30;;
53903;SDS011;39812;52.430;16.936;2023-02-02T06:38:29;1.73;;;1.13;;
53903;SDS011;39812;52.430;16.936;2023-02-02T06:40:58;1.67;;;1.27;;
53903;SDS011;39812;52.430;16.936;2023-02-02T06:43:24;1.55;;;1.10;;
53903;SDS011;39812;52.430;16.936;2023-02-02T06:45:50;2.33;;;1.30;;
53903;SDS011;39812;52.430;16.936;2023-02-02T06:48:15;1.90;;;1.50;;
53903;SDS011;39812;52.430;16.936;2023-02-02T06:50:41;2.95;;;1.58;;
53903;SDS011;39812;52.430;16.936;2023-02-02T06:53:07;3.35;;;1.65;;
53903;SDS011;39812;52.430;16.936;2023-02-02T06:55:32;1.55;;;1.30;;
53903;SDS011;39812;52.430;16.936;2023-02-02T06:57:58;4.43;;;1.55;;
53903;SDS011;39812;52.430;16.936;2023-02-02T07:00:25;2.30;;;1.50;;
53903;SDS011;39812;52.430;16.936;2023-02-02T07:02:52;2.13;;;1.83;;
53903;SDS011;39812;52.430;16.936;2023-02-02T07:05:18;2.75;;;1.35;;
53903;SDS011;39812;52.430;16.936;2023-02-02T07:07:45;3.35;;;1.88;;
53903;SDS011;39812;52.430;16.936;2023-02-02T07:10:11;3.85;;;1.98;;
53903;SDS011;39812;52.430;16.936;2023-02-02T07:12:37;2.53;;;1.83;;
53903;SDS011;39812;52.430;16.936;2023-02-02T07:15:03;6.25;;;1.40;;
53903;SDS011;39812;52.430;16.936;2023-02-02T07:17:29;2.00;;;1.60;;
53903;SDS011;39812;52.430;16.936;2023-02-02T07:19:55;2.92;;;2.08;;
53903;SDS011;39812;52.430;16.936;2023-02-02T07:22:21;5.75;;;1.40;;
53903;SDS011;39812;52.430;16.936;2023-02-02T07:24:46;5.05;;;2.20;;
53903;SDS011;39812;52.430;16.936;2023-02-02T07:27:12;2.47;;;1.73;;
53903;SDS011;39812;52.430;16.936;2023-02-02T07:29:38;1.92;;;1.50;;
53903;SDS011;39812;52.430;16.936;2023-02-02T07:32:04;3.78;;;1.55;;
53903;SDS011;39812;52.430;16.936;2023-02-02T07:34:30;2.03;;;1.55;;
53903;SDS011;39812;52.430;16.936;2023-02-02T07:36:56;1.85;;;1.42;;
53903;SDS011;39812;52.430;16.936;2023-02-02T07:39:22;2.90;;;1.58;;
53903;SDS011;39812;52.430;16.936;2023-02-02T07:41:47;2.72;;;1.80;;
53903;SDS011;39812;52.430;16.936;2023-02-02T07:44:14;2.80;;;1.52;;
53903;SDS011;39812;52.430;16.936;2023-02-02T07:46:41;7.70;;;2.38;;
53903;SDS011;39812;52.430;16.936;2023-02-02T07:49:14;3.30;;;1.75;;
53903;SDS011;39812;52.430;16.936;2023-02-02T07:51:41;2.55;;;1.75;;
53903;SDS011;39812;52.430;16.936;2023-02-02T07:54:08;2.60;;;1.42;;
53903;SDS011;39812;52.430;16.936;2023-02-02T07:56:34;3.42;;;1.60;;
53903;SDS011;39812;52.430;16.936;2023-02-02T07:59:01;7.28;;;2.30;;
53903;SDS011;39812;52.430;16.936;2023-02-02T08:01:27;4.53;;;2.20;;
53903;SDS011;39812;52.430;16.936;2023-02-02T08:03:53;2.38;;;1.58;;
53903;SDS011;39812;52.430;16.936;2023-02-02T08:06:25;2.90;;;1.77;;
53903;SDS011;39812;52.430;16.936;2023-02-02T08:08:52;2.92;;;2.10;;
53903;SDS011;39812;52.430;16.936;2023-02-02T08:11:19;5.68;;;2.20;;
53903;SDS011;39812;52.430;16.936;2023-02-02T08:13:50;3.85;;;2.00;;
53903;SDS011;39812;52.430;16.936;2023-02-02T08:16:17;3.85;;;2.25;;
53903;SDS011;39812;52.430;16.936;2023-02-02T08:18:43;4.63;;;1.95;;
53903;SDS011;39812;52.430;16.936;2023-02-02T08:21:09;4.60;;;2.25;;
53903;SDS011;39812;52.430;16.936;2023-02-02T08:23:36;3.60;;;1.88;;
53903;SDS011;39812;52.430;16.936;2023-02-02T08:26:10;5.45;;;2.35;;
53903;SDS011;39812;52.430;16.936;2023-02-02T08:28:45;4.38;;;1.92;;
53903;SDS011;39812;52.430;16.936;2023-02-02T08:31:14;5.90;;;2.30;;
53903;SDS011;39812;52.430;16.936;2023-02-02T08:33:48;4.72;;;2.40;;
53903;SDS011;39812;52.430;16.936;2023-02-02T08:36:19;3.40;;;1.95;;
53903;SDS011;39812;52.430;16.936;2023-02-02T08:38:46;3.20;;;2.22;;
53903;SDS011;39812;52.430;16.936;2023-02-02T08:41:13;6.82;;;2.13;;
53903;SDS011;39812;52.430;16.936;2023-02-02T08:43:42;3.13;;;1.70;;
53903;SDS011;39812;52.430;16.936;2023-02-02T08:46:08;2.60;;;2.00;;
53903;SDS011;39812;52.430;16.936;2023-02-02T08:48:35;4.00;;;1.88;;
53903;SDS011;39812;52.430;16.936;2023-02-02T08:51:02;2.88;;;2.20;;
53903;SDS011;39812;52.430;16.936;2023-02-02T08:53:29;1.65;;;1.25;;
53903;SDS011;39812;52.430;16.936;2023-02-02T08:56:02;2.38;;;1.73;;
53903;SDS011;39812;52.430;16.936;2023-02-02T08:58:29;4.53;;;1.88;;
53903;SDS011;39812;52.430;16.936;2023-02-02T09:03:30;4.60;;;1.83;;
53903;SDS011;39812;52.430;16.936;2023-02-02T09:05:56;3.85;;;2.13;;
53903;SDS011;39812;52.430;16.936;2023-02-02T09:08:22;4.03;;;1.90;;
53903;SDS011;39812;52.430;16.936;2023-02-02T09:10:48;4.25;;;2.13;;
53903;SDS011;39812;52.430;16.936;2023-02-02T09:13:13;4.32;;;1.92;;
53903;SDS011;39812;52.430;16.936;2023-02-02T09:15:39;3.55;;;1.60;;
53903;SDS011;39812;52.430;16.936;2023-02-02T09:18:04;4.70;;;1.63;;
53903;SDS011;39812;52.430;16.936;2023-02-02T09:20:30;2.22;;;1.60;;
53903;SDS011;39812;52.430;16.936;2023-02-02T09:22:57;2.10;;;1.35;;
53903;SDS011;39812;52.430;16.936;2023-02-02T09:25:23;5.72;;;1.73;;
53903;SDS011;39812;52.430;16.936;2023-02-02T09:27:51;3.35;;;1.75;;
53903;SDS011;39812;52.430;16.936;2023-02-02T09:30:17;1.85;;;1.08;;
53903;SDS011;39812;52.430;16.936;2023-02-02T09:32:43;5.82;;;1.58;;
53903;SDS011;39812;52.430;16.936;2023-02-02T09:35:09;4.57;;;1.30;;
53903;SDS011;39812;52.430;16.936;2023-02-02T09:37:35;2.17;;;1.27;;
53903;SDS011;39812;52.430;16.936;2023-02-02T09:40:01;2.88;;;1.50;;
53903;SDS011;39812;52.430;16.936;2023-02-02T09:47:49;2.20;;;1.63;;
53903;SDS011;39812;52.430;16.936;2023-02-02T09:53:17;2.80;;;1.30;;
53903;SDS011;39812;52.430;16.936;2023-02-02T09:55:51;2.53;;;0.85;;
53903;SDS011;39812;52.430;16.936;2023-02-02T09:58:20;4.30;;;1.58;;
53903;SDS011;39812;52.430;16.936;2023-02-02T10:14:50;3.10;;;1.55;;
53903;SDS011;39812;52.430;16.936;2023-02-02T10:17:28;2.03;;;1.35;;
53903;SDS011;39812;52.430;16.936;2023-02-02T10:25:51;1.77;;;0.90;;
53903;SDS011;39812;52.430;16.936;2023-02-02T10:29:31;2.40;;;1.38;;
53903;SDS011;39812;52.430;16.936;2023-02-02T10:31:58;2.17;;;0.93;;
53903;SDS011;39812;52.430;16.936;2023-02-02T10:37:41;1.73;;;1.17;;
53903;SDS011;39812;52.430;16.936;2023-02-02T10:46:19;2.63;;;1.20;;
53903;SDS011;39812;52.430;16.936;2023-02-02T10:49:00;2.22;;;1.02;;
53903;SDS011;39812;52.430;16.936;2023-02-02T10:51:35;2.60;;;1.40;;
53903;SDS011;39812;52.430;16.936;2023-02-02T10:54:02;3.63;;;1.48;;
53903;SDS011;39812;52.430;16.936;2023-02-02T10:56:48;1.60;;;0.90;;
53903;SDS011;39812;52.430;16.936;2023-02-02T10:59:21;1.98;;;1.13;;
53903;SDS011;39812;52.430;16.936;2023-02-02T11:01:53;3.95;;;1.48;;
53903;SDS011;39812;52.430;16.936;2023-02-02T11:04:19;2.00;;;1.25;;
53903;SDS011;39812;52.430;16.936;2023-02-02T11:07:05;2.63;;;0.75;;
53903;SDS011;39812;52.430;16.936;2023-02-02T11:09:37;1.33;;;0.93;;
53903;SDS011;39812;52.430;16.936;2023-02-02T11:15:03;1.20;;;0.80;;
53903;SDS011;39812;52.430;16.936;2023-02-02T11:17:31;3.50;;;1.50;;
53903;SDS011;39812;52.430;16.936;2023-02-02T11:19:58;2.13;;;1.05;;
53903;SDS011;39812;52.430;16.936;2023-02-02T11:22:26;1.27;;;0.85;;
53903;SDS011;39812;52.430;16.936;2023-02-02T11:25:08;1.65;;;1.02;;
53903;SDS011;39812;52.430;16.936;2023-02-02T11:27:50;2.40;;;1.20;;
53903;SDS011;39812;52.430;16.936;2023-02-02T11:32:45;1.42;;;0.82;;
53903;SDS011;39812;52.430;16.936;2023-02-02T11:35:18;1.35;;;0.85;;
53903;SDS011;39812;52.430;16.936;2023-02-02T11:40:34;2.50;;;1.10;;
53903;SDS011;39812;52.430;16.936;2023-02-02T11:46:06;3.92;;;1.30;;
53903;SDS011;39812;52.430;16.936;2023-02-02T11:48:46;3.67;;;1.00;;
53903;SDS011;39812;52.430;16.936;2023-02-02T11:51:21;2.33;;;1.15;;
53903;SDS011;39812;52.430;16.936;2023-02-02T11:53:48;2.67;;;1.27;;
53903;SDS011;39812;52.430;16.936;2023-02-02T11:56:24;5.68;;;0.93;;
53903;SDS011;39812;52.430;16.936;2023-02-02T11:58:51;3.08;;;1.40;;
53903;SDS011;39812;52.430;16.936;2023-02-02T12:01:27;1.55;;;1.00;;
53903;SDS011;39812;52.430;16.936;2023-02-02T12:04:43;2.47;;;1.20;;
53903;SDS011;39812;52.430;16.936;2023-02-02T12:06:50;3.33;;;1.20;;
53903;SDS011;39812;52.430;16.936;2023-02-02T12:09:24;2.58;;;1.10;;
53903;SDS011;39812;52.430;16.936;2023-02-02T12:12:01;3.13;;;1.63;;
53903;SDS011;39812;52.430;16.936;2023-02-02T12:14:47;1.30;;;0.70;;
53903;SDS011;39812;52.430;16.936;2023-02-02T12:17:37;1.65;;;0.90;;
53903;SDS011;39812;52.430;16.936;2023-02-02T12:31:06;1.92;;;0.90;;
53903;SDS011;39812;52.430;16.936;2023-02-02T12:33:45;4.70;;;1.23;;
53903;SDS011;39812;52.430;16.936;2023-02-02T12:44:16;2.40;;;1.00;;
53903;SDS011;39812;52.430;16.936;2023-02-02T12:46:56;1.95;;;1.10;;
53903;SDS011;39812;52.430;16.936;2023-02-02T12:52:07;1.20;;;0.85;;
53903;SDS011;39812;52.430;16.936;2023-02-02T13:12:50;1.27;;;1.00;;
53903;SDS011;39812;52.430;16.936;2023-02-02T13:15:34;1.30;;;0.85;;
53903;SDS011;39812;52.430;16.936;2023-02-02T13:18:05;0.75;;;0.70;;
53903;SDS011;39812;52.430;16.936;2023-02-02T13:20:59;2.55;;;1.35;;
53903;SDS011;39812;52.430;16.936;2023-02-02T13:23:34;1.17;;;0.90;;
53903;SDS011;39812;52.430;16.936;2023-02-02T13:26:20;1.13;;;0.70;;
53903;SDS011;39812;52.430;16.936;2023-02-02T13:34:38;3.10;;;1.00;;
53903;SDS011;39812;52.430;16.936;2023-02-02T13:48:34;2.15;;;1.30;;
53903;SDS011;39812;52.430;16.936;2023-02-02T13:53:50;1.05;;;0.88;;
53903;SDS011;39812;52.430;16.936;2023-02-02T14:02:32;1.40;;;1.02;;
53903;SDS011;39812;52.430;16.936;2023-02-02T14:05:02;1.63;;;1.02;;
53903;SDS011;39812;52.430;16.936;2023-02-02T14:07:35;2.38;;;1.20;;
53903;SDS011;39812;52.430;16.936;2023-02-02T14:10:05;2.08;;;1.00;;
53903;SDS011;39812;52.430;16.936;2023-02-02T14:12:43;1.73;;;1.00;;
53903;SDS011;39812;52.430;16.936;2023-02-02T14:15:09;2.63;;;1.10;;
53903;SDS011;39812;52.430;16.936;2023-02-02T14:20:03;5.70;;;1.52;;
53903;SDS011;39812;52.430;16.936;2023-02-02T14:22:43;2.22;;;1.10;;
53903;SDS011;39812;52.430;16.936;2023-02-02T14:28:08;4.25;;;1.40;;
53903;SDS011;39812;52.430;16.936;2023-02-02T14:30:36;2.38;;;1.35;;
53903;SDS011;39812;52.430;16.936;2023-02-02T14:36:10;2.55;;;1.50;;
53903;SDS011;39812;52.430;16.936;2023-02-02T14:38:48;4.47;;;1.40;;
53903;SDS011;39812;52.430;16.936;2023-02-02T14:44:13;3.72;;;1.67;;
53903;SDS011;39812;52.430;16.936;2023-02-02T14:46:39;2.67;;;1.33;;
53903;SDS011;39812;52.430;16.936;2023-02-02T14:49:13;3.58;;;1.30;;
53903;SDS011;39812;52.430;16.936;2023-02-02T14:51:46;2.17;;;1.00;;
53903;SDS011;39812;52.430;16.936;2023-02-02T14:54:24;1.88;;;1.40;;
53903;SDS011;39812;52.430;16.936;2023-02-02T14:56:56;2.45;;;1.10;;
53903;SDS011;39812;52.430;16.936;2023-02-02T14:59:32;4.00;;;1.13;;
53903;SDS011;39812;52.430;16.936;2023-02-02T15:04:47;2.10;;;1.10;;
53903;SDS011;39812;52.430;16.936;2023-02-02T15:09:54;3.38;;;1.30;;
53903;SDS011;39812;52.430;16.936;2023-02-02T15:20:11;2.38;;;1.48;;
53903;SDS011;39812;52.430;16.936;2023-02-02T15:25:16;2.28;;;1.10;;
53903;SDS011;39812;52.430;16.936;2023-02-02T15:30:32;2.55;;;1.38;;
53903;SDS011;39812;52.430;16.936;2023-02-02T15:33:03;2.90;;;1.10;;
53903;SDS011;39812;52.430;16.936;2023-02-02T15:38:03;3.22;;;1.65;;
53903;SDS011;39812;52.430;16.936;2023-02-02T15:40:37;4.57;;;1.52;;
53903;SDS011;39812;52.430;16.936;2023-02-02T15:43:06;2.67;;;1.55;;
53903;SDS011;39812;52.430;16.936;2023-02-02T15:45:35;5.45;;;2.13;;
53903;SDS011;39812;52.430;16.936;2023-02-02T15:48:17;2.40;;;1.50;;
53903;SDS011;39812;52.430;16.936;2023-02-02T15:50:44;4.40;;;3.10;;
53903;SDS011;39812;52.430;16.936;2023-02-02T15:53:15;3.53;;;1.95;;
53903;SDS011;39812;52.430;16.936;2023-02-02T15:55:43;3.92;;;1.80;;
53903;SDS011;39812;52.430;16.936;2023-02-02T16:01:05;5.03;;;2.20;;
53903;SDS011;39812;52.430;16.936;2023-02-02T16:06:14;4.13;;;2.22;;
53903;SDS011;39812;52.430;16.936;2023-02-02T16:08:42;4.63;;;2.00;;
53903;SDS011;39812;52.430;16.936;2023-02-02T16:11:09;1.90;;;1.27;;
53903;SDS011;39812;52.430;16.936;2023-02-02T16:13:35;2.15;;;1.40;;
53903;SDS011;39812;52.430;16.936;2023-02-02T16:16:06;4.07;;;2.13;;
53903;SDS011;39812;52.430;16.936;2023-02-02T16:24:43;3.85;;;1.70;;
53903;SDS011;39812;52.430;16.936;2023-02-02T16:27:14;3.00;;;1.33;;
53903;SDS011;39812;52.430;16.936;2023-02-02T16:29:43;2.38;;;1.33;;
53903;SDS011;39812;52.430;16.936;2023-02-02T16:34:56;2.47;;;1.60;;
53903;SDS011;39812;52.430;16.936;2023-02-02T16:37:26;3.63;;;1.77;;
53903;SDS011;39812;52.430;16.936;2023-02-02T16:39:56;3.78;;;1.40;;
53903;SDS011;39812;52.430;16.936;2023-02-02T16:45:57;3.15;;;1.85;;
53903;SDS011;39812;52.430;16.936;2023-02-02T16:48:38;3.03;;;1.65;;
53903;SDS011;39812;52.430;16.936;2023-02-02T16:53:41;5.82;;;2.03;;
53903;SDS011;39812;52.430;16.936;2023-02-02T16:56:46;3.45;;;1.70;;
53903;SDS011;39812;52.430;16.936;2023-02-02T17:01:57;5.50;;;2.33;;
53903;SDS011;39812;52.430;16.936;2023-02-02T17:04:29;3.47;;;1.58;;
53903;SDS011;39812;52.430;16.936;2023-02-02T17:07:05;2.83;;;1.55;;
53903;SDS011;39812;52.430;16.936;2023-02-02T17:09:35;3.50;;;2.05;;
53903;SDS011;39812;52.430;16.936;2023-02-02T17:14:34;5.18;;;1.65;;
53903;SDS011;39812;52.430;16.936;2023-02-02T17:17:01;3.53;;;1.48;;
53903;SDS011;39812;52.430;16.936;2023-02-02T17:19:29;4.95;;;1.80;;
53903;SDS011;39812;52.430;16.936;2023-02-02T17:21:56;5.28;;;2.42;;
53903;SDS011;39812;52.430;16.936;2023-02-02T17:24:24;2.30;;;1.40;;
53903;SDS011;39812;52.430;16.936;2023-02-02T17:26:50;3.17;;;1.30;;
53903;SDS011;39812;52.430;16.936;2023-02-02T17:29:17;2.83;;;1.30;;
53903;SDS011;39812;52.430;16.936;2023-02-02T17:31:44;2.35;;;1.10;;
53903;SDS011;39812;52.430;16.936;2023-02-02T17:34:10;7.78;;;1.63;;
53903;SDS011;39812;52.430;16.936;2023-02-02T17:36:40;2.55;;;1.50;;
53903;SDS011;39812;52.430;16.936;2023-02-02T17:39:06;3.13;;;1.30;;
53903;SDS011;39812;52.430;16.936;2023-02-02T17:41:32;2.88;;;1.75;;
53903;SDS011;39812;52.430;16.936;2023-02-02T17:43:58;2.00;;;0.80;;
53903;SDS011;39812;52.430;16.936;2023-02-02T17:46:24;1.52;;;0.98;;
53903;SDS011;39812;52.430;16.936;2023-02-02T17:48:54;2.33;;;1.48;;
53903;SDS011;39812;52.430;16.936;2023-02-02T17:51:23;1.65;;;1.20;;
53903;SDS011;39812;52.430;16.936;2023-02-02T17:53:49;2.72;;;1.38;;
53903;SDS011;39812;52.430;16.936;2023-02-02T17:56:16;2.17;;;1.10;;
53903;SDS011;39812;52.430;16.936;2023-02-02T17:58:42;5.72;;;2.13;;
53903;SDS011;39812;52.430;16.936;2023-02-02T18:01:08;3.63;;;1.80;;
53903;SDS011;39812;52.430;16.936;2023-02-02T18:03:36;5.03;;;1.88;;
53903;SDS011;39812;52.430;16.936;2023-02-02T18:06:03;3.55;;;1.67;;
53903;SDS011;39812;52.430;16.936;2023-02-02T18:08:29;4.18;;;1.73;;
53903;SDS011;39812;52.430;16.936;2023-02-02T18:10:56;3.38;;;1.70;;
53903;SDS011;39812;52.430;16.936;2023-02-02T18:13:23;4.30;;;1.95;;